Ellery, Illinois
Current Conditions -  °F | °C
As of 10:35 PM on Thursday 18 Dec 2014 (Local Time) from KFWC Reporting Station
Overcast Overcast  
Wind Chill: 31°   Ceiling: 4600
Heat Index: 31°   Visibility: 10mi
Dew Point: 27°   Wind: 0mph
Humidity: 83%   Direction: NA
Pressure: 30.29"   Gusts: NA
Location:  38.35°N, 88.15°W
Report Text: KFWC 190435Z AUTO 00000KT 10SM SCT037 BKN046 OVC080 00/M03 A3029 RMK AO1 T10041030
Loading
Personal Weather Stations






























Interactive Weather Map New forecast layout! Learn more

10-Day Weather Forecast

Advertisements
Track Severe Weather on mobile